WAT6626 RCTP-PANC
Flight info
| Callsign | WAT6626 |
|---|---|
| Flight time | N/A |
| Altitude | 37000 |
| Route | MOLKA1C MOLKA M750 MUKEP Y891 OVSUN/N0459F380 Y893 IGMIS/N0458F370 Y57 PUTER A590 POXED/N0458F390 A590 HAMND NEELL7 |
| Aircraft | A332/H-SDE3GHIJ2J3J5M1RVWXY/LB2D1 |
Departure
| Time | 2026-04-30 20:49 |
|---|---|
| Airport | Taiwan Taoyuan International Airport (RCTP) |
Arrival
| Time | N/A |
|---|---|
| Airport | Ted Stevens Anchorage International Airport (PANC) |
| Time | Latitude | Longitude | Altitude | Speed | Heading |
|---|---|---|---|---|---|
| 2026-04-30 20:30 | 25.07847 | 121.22970 | 120 ft | 0 kts | 137° |
| 2026-04-30 20:37 | 25.07857 | 121.22961 | 120 ft | 2 kts | 137° |
| 2026-04-30 20:37 | 25.07868 | 121.22949 | 120 ft | 2 kts | 137° |
| 2026-04-30 20:37 | 25.07879 | 121.22938 | 120 ft | 2 kts | 137° |
| 2026-04-30 20:38 | 25.07890 | 121.22926 | 120 ft | 2 kts | 141° |
| 2026-04-30 20:38 | 25.07903 | 121.22918 | 120 ft | 2 kts | 164° |
| 2026-04-30 20:38 | 25.07918 | 121.22916 | 120 ft | 2 kts | 182° |
| 2026-04-30 20:39 | 25.07946 | 121.22925 | 120 ft | 2 kts | 219° |
| 2026-04-30 20:39 | 25.07953 | 121.22932 | 120 ft | 0 kts | 230° |
| 2026-04-30 20:39 | 25.07955 | 121.22935 | 120 ft | 0 kts | 230° |
| 2026-04-30 20:41 | 25.07953 | 121.22932 | 120 ft | 1 kts | 230° |
| 2026-04-30 20:42 | 25.07942 | 121.22917 | 120 ft | 3 kts | 230° |
| 2026-04-30 20:42 | 25.07922 | 121.22891 | 120 ft | 5 kts | 229° |
| 2026-04-30 20:42 | 25.07855 | 121.22807 | 120 ft | 9 kts | 229° |
| 2026-04-30 20:43 | 25.07809 | 121.22749 | 120 ft | 10 kts | 228° |
| 2026-04-30 20:43 | 25.07754 | 121.22681 | 120 ft | 12 kts | 229° |
| 2026-04-30 20:43 | 25.07692 | 121.22601 | 120 ft | 14 kts | 229° |
| 2026-04-30 20:44 | 25.07542 | 121.22411 | 120 ft | 18 kts | 229° |
| 2026-04-30 20:44 | 25.07456 | 121.22301 | 120 ft | 19 kts | 229° |
| 2026-04-30 20:44 | 25.07286 | 121.22086 | 120 ft | 11 kts | 228° |
| 2026-04-30 20:45 | 25.07141 | 121.22129 | 120 ft | 13 kts | 139° |
| 2026-04-30 20:45 | 25.07063 | 121.22205 | 120 ft | 16 kts | 138° |
| 2026-04-30 20:45 | 25.06968 | 121.22295 | 120 ft | 19 kts | 138° |
| 2026-04-30 20:46 | 25.06644 | 121.22605 | 120 ft | 18 kts | 139° |
| 2026-04-30 20:46 | 25.06553 | 121.22618 | 120 ft | 14 kts | 215° |
| 2026-04-30 20:47 | 25.06398 | 121.22430 | 120 ft | 18 kts | 227° |
| 2026-04-30 20:47 | 25.06310 | 121.22323 | 120 ft | 17 kts | 229° |
| 2026-04-30 20:48 | 25.06151 | 121.22298 | 120 ft | 12 kts | 138° |
| 2026-04-30 20:48 | 25.06116 | 121.22385 | 120 ft | 13 kts | 70° |
| 2026-04-30 20:48 | 25.06171 | 121.22462 | 120 ft | 13 kts | 49° |
| 2026-04-30 20:48 | 25.06355 | 121.22695 | 120 ft | 72 kts | 49° |
| 2026-04-30 20:49 | 25.06825 | 121.23288 | 121 ft | 131 kts | 49° |
| 2026-04-30 20:49 | 25.07525 | 121.24188 | 319 ft | 164 kts | 49° |
| 2026-04-30 20:49 | 25.08257 | 121.25101 | 1075 ft | 159 kts | 52° |
| 2026-04-30 20:50 | 25.09704 | 121.27015 | 2245 ft | 168 kts | 50° |
| 2026-04-30 20:50 | 25.10492 | 121.28053 | 2505 ft | 182 kts | 51° |
| 2026-04-30 20:50 | 25.11353 | 121.29187 | 2730 ft | 202 kts | 51° |
| 2026-04-30 20:50 | 25.12375 | 121.30389 | 3029 ft | 224 kts | 45° |
| 2026-04-30 20:51 | 25.13505 | 121.31668 | 3466 ft | 240 kts | 46° |
| 2026-04-30 20:51 | 25.15942 | 121.34462 | 4679 ft | 259 kts | 45° |
| 2026-04-30 20:51 | 25.17194 | 121.35903 | 5421 ft | 262 kts | 45° |
| 2026-04-30 20:52 | 25.18467 | 121.37365 | 6071 ft | 267 kts | 45° |
| 2026-04-30 20:52 | 25.19786 | 121.38884 | 6691 ft | 273 kts | 45° |
| 2026-04-30 20:52 | 25.22462 | 121.41966 | 7889 ft | 282 kts | 44° |
| 2026-04-30 20:53 | 25.23832 | 121.43546 | 8464 ft | 288 kts | 44° |
| 2026-04-30 20:53 | 25.25236 | 121.45162 | 9017 ft | 293 kts | 44° |
| 2026-04-30 20:53 | 25.26678 | 121.46827 | 9556 ft | 297 kts | 44° |
| 2026-04-30 20:54 | 25.29308 | 121.50468 | 10325 ft | 319 kts | 68° |
| 2026-04-30 20:54 | 25.29708 | 121.52949 | 10474 ft | 337 kts | 87° |
| 2026-04-30 20:54 | 25.30001 | 121.55589 | 10651 ft | 353 kts | 78° |
| 2026-04-30 20:55 | 25.30978 | 121.61151 | 10959 ft | 383 kts | 78° |
| 2026-04-30 20:55 | 25.31520 | 121.64079 | 11255 ft | 392 kts | 77° |
| 2026-04-30 20:55 | 25.32075 | 121.67095 | 11731 ft | 395 kts | 78° |
| 2026-04-30 20:56 | 25.33190 | 121.73102 | 12555 ft | 402 kts | 78° |
| 2026-04-30 20:56 | 25.33755 | 121.76159 | 12939 ft | 406 kts | 78° |
| 2026-04-30 20:56 | 25.34899 | 121.82361 | 13689 ft | 413 kts | 78° |
| 2026-04-30 20:57 | 25.35478 | 121.85506 | 14070 ft | 416 kts | 78° |
| 2026-04-30 20:57 | 25.36056 | 121.88653 | 14444 ft | 419 kts | 78° |
| 2026-04-30 20:57 | 25.36640 | 121.91833 | 14804 ft | 421 kts | 78° |
| 2026-04-30 20:58 | 25.37823 | 121.98290 | 15510 ft | 427 kts | 78° |
| 2026-04-30 20:58 | 25.38414 | 122.01525 | 15853 ft | 430 kts | 78° |
| 2026-04-30 20:58 | 25.39007 | 122.04774 | 16190 ft | 432 kts | 78° |
| 2026-04-30 20:58 | 25.39605 | 122.08051 | 16523 ft | 435 kts | 78° |
| 2026-04-30 20:59 | 25.40820 | 122.14719 | 17160 ft | 441 kts | 77° |
| 2026-04-30 20:59 | 25.41426 | 122.18055 | 17471 ft | 443 kts | 77° |
| 2026-04-30 21:00 | 25.43211 | 122.24631 | 18064 ft | 447 kts | 68° |
| 2026-04-30 21:00 | 25.45397 | 122.31115 | 18711 ft | 451 kts | 68° |
| 2026-04-30 21:01 | 25.47615 | 122.37707 | 19307 ft | 455 kts | 67° |
| 2026-04-30 21:01 | 25.48721 | 122.41003 | 19600 ft | 457 kts | 67° |
| 2026-04-30 21:01 | 25.50948 | 122.47650 | 20165 ft | 461 kts | 67° |
| 2026-04-30 21:02 | 25.52082 | 122.51041 | 20439 ft | 463 kts | 67° |
| 2026-04-30 21:02 | 25.53205 | 122.54401 | 20705 ft | 465 kts | 67° |
| 2026-04-30 21:02 | 25.54332 | 122.57774 | 20966 ft | 467 kts | 67° |
| 2026-04-30 21:02 | 25.55464 | 122.61166 | 21222 ft | 469 kts | 67° |
| 2026-04-30 21:03 | 25.56604 | 122.64587 | 21473 ft | 471 kts | 67° |
| 2026-04-30 21:03 | 25.57746 | 122.68014 | 21703 ft | 473 kts | 68° |
| 2026-04-30 21:03 | 25.58893 | 122.71460 | 21935 ft | 475 kts | 68° |
| 2026-04-30 21:03 | 25.60055 | 122.74954 | 22166 ft | 477 kts | 67° |
| 2026-04-30 21:04 | 25.61209 | 122.78430 | 22384 ft | 479 kts | 67° |
| 2026-04-30 21:04 | 25.62366 | 122.81915 | 22600 ft | 481 kts | 67° |
| 2026-04-30 21:04 | 25.64693 | 122.88897 | 23018 ft | 484 kts | 67° |
| 2026-04-30 21:05 | 25.65894 | 122.92450 | 23231 ft | 486 kts | 67° |
| 2026-04-30 21:05 | 25.67078 | 122.95958 | 23440 ft | 487 kts | 67° |
| 2026-04-30 21:05 | 25.68280 | 122.99528 | 23650 ft | 489 kts | 67° |
| 2026-04-30 21:05 | 25.69472 | 123.03069 | 23870 ft | 491 kts | 67° |
| 2026-04-30 21:06 | 25.70669 | 123.06624 | 24076 ft | 493 kts | 67° |
| 2026-04-30 21:06 | 25.71871 | 123.10202 | 24288 ft | 495 kts | 67° |
| 2026-04-30 21:06 | 25.73080 | 123.13802 | 24503 ft | 497 kts | 67° |
| 2026-04-30 21:06 | 25.74305 | 123.17456 | 24715 ft | 499 kts | 67° |
| 2026-04-30 21:07 | 25.75519 | 123.21081 | 24931 ft | 501 kts | 67° |
| 2026-04-30 21:07 | 25.76734 | 123.24712 | 25145 ft | 502 kts | 67° |
| 2026-04-30 21:07 | 25.77954 | 123.28360 | 25355 ft | 504 kts | 67° |
| 2026-04-30 21:07 | 25.79191 | 123.32064 | 25567 ft | 506 kts | 67° |
| 2026-04-30 21:08 | 25.80419 | 123.35741 | 25764 ft | 508 kts | 67° |
| 2026-04-30 21:08 | 25.81666 | 123.39479 | 25967 ft | 511 kts | 67° |
| 2026-04-30 21:08 | 25.82906 | 123.43203 | 26170 ft | 513 kts | 67° |
| 2026-04-30 21:08 | 25.84148 | 123.46935 | 26369 ft | 515 kts | 67° |
| 2026-04-30 21:09 | 25.85391 | 123.50673 | 26576 ft | 517 kts | 67° |
| 2026-04-30 21:09 | 25.86678 | 123.54424 | 26773 ft | 517 kts | 63° |
| 2026-04-30 21:09 | 25.88572 | 123.57800 | 26920 ft | 511 kts | 45° |
| 2026-04-30 21:09 | 25.91180 | 123.60509 | 27131 ft | 501 kts | 31° |
| 2026-04-30 21:10 | 25.94184 | 123.62379 | 27339 ft | 491 kts | 18° |
| 2026-04-30 21:10 | 25.97313 | 123.63990 | 27543 ft | 494 kts | 19° |
| 2026-04-30 21:10 | 26.00463 | 123.65608 | 27729 ft | 496 kts | 19° |
| 2026-04-30 21:10 | 26.03613 | 123.67252 | 27904 ft | 498 kts | 19° |
| 2026-04-30 21:11 | 26.06809 | 123.68922 | 28105 ft | 499 kts | 19° |
| 2026-04-30 21:11 | 26.09974 | 123.70578 | 28297 ft | 501 kts | 19° |
| 2026-04-30 21:11 | 26.13139 | 123.72236 | 28486 ft | 502 kts | 19° |
| 2026-04-30 21:11 | 26.16334 | 123.73910 | 28669 ft | 504 kts | 19° |
| 2026-04-30 21:12 | 26.19520 | 123.75579 | 28855 ft | 505 kts | 19° |
| 2026-04-30 21:12 | 26.22762 | 123.77280 | 29031 ft | 506 kts | 19° |
| 2026-04-30 21:12 | 26.25977 | 123.78967 | 29192 ft | 508 kts | 19° |
| 2026-04-30 21:12 | 26.29196 | 123.80658 | 29407 ft | 508 kts | 19° |
| 2026-04-30 21:13 | 26.32420 | 123.82353 | 29647 ft | 508 kts | 19° |
| 2026-04-30 21:13 | 26.35637 | 123.84045 | 29895 ft | 507 kts | 19° |
| 2026-04-30 21:13 | 26.38842 | 123.85731 | 30137 ft | 507 kts | 19° |
| 2026-04-30 21:13 | 26.42049 | 123.87420 | 30391 ft | 506 kts | 19° |
| 2026-04-30 21:14 | 26.45256 | 123.89111 | 30647 ft | 506 kts | 19° |
| 2026-04-30 21:14 | 26.48449 | 123.90794 | 30902 ft | 505 kts | 19° |
| 2026-04-30 21:14 | 26.51694 | 123.92506 | 31166 ft | 505 kts | 19° |
| 2026-04-30 21:14 | 26.54894 | 123.94195 | 31428 ft | 505 kts | 18° |
| 2026-04-30 21:15 | 26.58088 | 123.95882 | 31687 ft | 504 kts | 18° |
| 2026-04-30 21:15 | 26.61292 | 123.97575 | 31949 ft | 504 kts | 18° |
| 2026-04-30 21:15 | 26.64456 | 123.99328 | 32197 ft | 509 kts | 24° |
| 2026-04-30 21:15 | 26.67278 | 124.01813 | 32377 ft | 523 kts | 41° |
| 2026-04-30 21:16 | 26.69640 | 124.04963 | 32612 ft | 528 kts | 46° |
| 2026-04-30 21:16 | 26.72000 | 124.08159 | 32875 ft | 527 kts | 46° |
| 2026-04-30 21:16 | 26.74357 | 124.11341 | 33139 ft | 527 kts | 45° |
| 2026-04-30 21:16 | 26.76719 | 124.14512 | 33380 ft | 528 kts | 45° |
| 2026-04-30 21:17 | 26.79088 | 124.17689 | 33598 ft | 529 kts | 46° |
| 2026-04-30 21:17 | 26.81458 | 124.20869 | 33816 ft | 530 kts | 46° |
| 2026-04-30 21:17 | 26.83799 | 124.24013 | 34037 ft | 530 kts | 46° |
| 2026-04-30 21:17 | 26.86183 | 124.27219 | 34306 ft | 529 kts | 46° |
| 2026-04-30 21:18 | 26.88558 | 124.30418 | 34671 ft | 526 kts | 45° |
| 2026-04-30 21:18 | 26.90913 | 124.33588 | 35020 ft | 522 kts | 45° |
| 2026-04-30 21:18 | 26.95603 | 124.39904 | 35083 ft | 526 kts | 45° |
| 2026-04-30 21:19 | 27.00326 | 124.46273 | 35111 ft | 525 kts | 45° |
| 2026-04-30 21:19 | 27.05073 | 124.52679 | 35044 ft | 524 kts | 45° |
| 2026-04-30 21:20 | 27.09767 | 124.59024 | 35051 ft | 525 kts | 45° |
| 2026-04-30 21:20 | 27.14510 | 124.65446 | 35064 ft | 527 kts | 45° |
| 2026-04-30 21:21 | 27.19253 | 124.71877 | 35045 ft | 527 kts | 45° |
| 2026-04-30 21:22 | 27.26346 | 124.81511 | 35044 ft | 529 kts | 45° |
| 2026-04-30 21:23 | 27.35803 | 124.94391 | 35044 ft | 530 kts | 45° |
| 2026-04-30 21:23 | 27.42913 | 125.04041 | 35046 ft | 531 kts | 45° |
| 2026-04-30 21:24 | 27.47687 | 125.10479 | 35047 ft | 532 kts | 45° |
| 2026-04-30 21:24 | 27.52458 | 125.16926 | 35048 ft | 533 kts | 45° |
| 2026-04-30 21:25 | 27.59610 | 125.26608 | 35050 ft | 534 kts | 44° |
| 2026-04-30 21:26 | 27.66832 | 125.36404 | 35054 ft | 537 kts | 44° |
| 2026-04-30 21:27 | 27.74027 | 125.46188 | 35056 ft | 539 kts | 44° |
| 2026-04-30 21:27 | 27.78815 | 125.52710 | 35058 ft | 540 kts | 44° |
| 2026-04-30 21:28 | 27.86080 | 125.62628 | 35059 ft | 541 kts | 44° |
| 2026-04-30 21:29 | 27.93348 | 125.72568 | 35042 ft | 543 kts | 45° |
| 2026-04-30 21:30 | 28.05493 | 125.89237 | 35042 ft | 546 kts | 45° |
| 2026-04-30 21:31 | 28.17621 | 126.05947 | 35041 ft | 546 kts | 45° |
| 2026-04-30 21:32 | 28.24887 | 126.15990 | 35042 ft | 546 kts | 45° |
| 2026-04-30 21:32 | 28.29753 | 126.22729 | 35042 ft | 547 kts | 45° |
| 2026-04-30 21:33 | 28.37020 | 126.32813 | 35043 ft | 548 kts | 44° |
| 2026-04-30 21:34 | 28.41895 | 126.39591 | 35044 ft | 549 kts | 44° |
| 2026-04-30 21:34 | 28.49186 | 126.49747 | 35044 ft | 551 kts | 44° |
| 2026-04-30 21:35 | 28.54054 | 126.56543 | 35045 ft | 552 kts | 44° |
| 2026-04-30 21:35 | 28.58951 | 126.63392 | 35045 ft | 554 kts | 44° |
| 2026-04-30 21:36 | 28.63852 | 126.70255 | 35015 ft | 555 kts | 45° |
| 2026-04-30 21:37 | 28.73694 | 126.84072 | 35018 ft | 558 kts | 45° |
| 2026-04-30 21:37 | 28.78607 | 126.90990 | 35020 ft | 559 kts | 45° |
| 2026-04-30 21:38 | 28.83541 | 126.97945 | 35021 ft | 560 kts | 45° |
| 2026-04-30 21:38 | 28.88468 | 127.04902 | 35012 ft | 561 kts | 45° |
| 2026-04-30 21:39 | 28.93400 | 127.11878 | 34998 ft | 563 kts | 45° |
| 2026-04-30 21:39 | 28.98375 | 127.18929 | 34992 ft | 563 kts | 45° |
| 2026-04-30 21:40 | 29.03316 | 127.25942 | 34992 ft | 564 kts | 45° |
| 2026-04-30 21:40 | 29.08278 | 127.32996 | 34994 ft | 565 kts | 45° |
| 2026-04-30 21:41 | 29.13245 | 127.40070 | 34989 ft | 567 kts | 45° |
| 2026-04-30 21:41 | 29.18181 | 127.47113 | 34991 ft | 568 kts | 45° |
| 2026-04-30 21:42 | 29.23191 | 127.54274 | 34992 ft | 569 kts | 45° |
| 2026-04-30 21:42 | 29.28165 | 127.61393 | 34994 ft | 570 kts | 45° |
| 2026-04-30 21:43 | 29.33155 | 127.68547 | 34967 ft | 573 kts | 45° |
| 2026-04-30 21:43 | 29.38168 | 127.75751 | 34971 ft | 575 kts | 45° |
| 2026-04-30 21:44 | 29.43189 | 127.82976 | 34972 ft | 578 kts | 45° |
| 2026-04-30 21:44 | 29.48232 | 127.90250 | 34975 ft | 579 kts | 45° |
| 2026-04-30 21:45 | 29.53288 | 127.97552 | 34976 ft | 580 kts | 45° |
| 2026-04-30 21:45 | 29.58359 | 128.04880 | 34977 ft | 582 kts | 45° |
| 2026-04-30 21:46 | 29.63427 | 128.12218 | 34978 ft | 583 kts | 45° |
| 2026-04-30 21:46 | 29.68489 | 128.19554 | 34980 ft | 584 kts | 45° |
| 2026-04-30 21:47 | 29.73562 | 128.26926 | 34982 ft | 586 kts | 46° |
| 2026-04-30 21:47 | 29.78677 | 128.34375 | 34983 ft | 586 kts | 46° |
| 2026-04-30 21:48 | 29.83738 | 128.41757 | 34985 ft | 586 kts | 45° |
| 2026-04-30 21:48 | 29.88835 | 128.49203 | 34985 ft | 586 kts | 46° |
| 2026-04-30 21:49 | 29.93893 | 128.56607 | 34985 ft | 585 kts | 46° |
| 2026-04-30 21:49 | 29.98974 | 128.64056 | 34986 ft | 585 kts | 46° |
| 2026-04-30 21:50 | 30.04017 | 128.71466 | 34954 ft | 584 kts | 46° |
| 2026-04-30 21:50 | 30.09071 | 128.78902 | 34951 ft | 585 kts | 47° |
| 2026-04-30 21:51 | 30.14125 | 128.86356 | 34942 ft | 586 kts | 47° |
| 2026-04-30 21:51 | 30.19195 | 128.93846 | 34948 ft | 585 kts | 47° |
| 2026-04-30 21:52 | 30.24223 | 129.01289 | 34950 ft | 584 kts | 47° |
| 2026-04-30 21:52 | 30.29258 | 129.08754 | 34952 ft | 583 kts | 48° |
| 2026-04-30 21:53 | 30.34261 | 129.16188 | 34952 ft | 583 kts | 48° |
| 2026-04-30 21:53 | 30.39272 | 129.23648 | 34952 ft | 583 kts | 48° |
| 2026-04-30 21:54 | 30.44291 | 129.31133 | 34953 ft | 583 kts | 49° |
| 2026-04-30 21:54 | 30.49291 | 129.38603 | 34953 ft | 583 kts | 49° |
| 2026-04-30 21:55 | 30.54311 | 129.46120 | 34953 ft | 583 kts | 49° |
| 2026-04-30 21:55 | 30.59328 | 129.53645 | 34953 ft | 583 kts | 49° |
| 2026-04-30 21:56 | 30.64321 | 129.61148 | 34952 ft | 582 kts | 49° |
| 2026-04-30 21:56 | 30.69326 | 129.68681 | 34922 ft | 582 kts | 50° |
| 2026-04-30 21:57 | 30.74292 | 129.76173 | 34918 ft | 581 kts | 50° |
| 2026-04-30 21:57 | 30.79254 | 129.83673 | 34918 ft | 582 kts | 50° |
| 2026-04-30 21:58 | 30.84230 | 129.91220 | 34918 ft | 582 kts | 51° |
| 2026-04-30 21:58 | 30.88582 | 129.99249 | 34927 ft | 584 kts | 58° |
| 2026-04-30 21:59 | 30.92891 | 130.07390 | 34926 ft | 584 kts | 58° |
| 2026-04-30 22:00 | 30.99327 | 130.19524 | 34931 ft | 583 kts | 59° |
| 2026-04-30 22:00 | 31.05756 | 130.31692 | 34925 ft | 582 kts | 59° |
| 2026-04-30 22:01 | 31.10029 | 130.39798 | 34930 ft | 582 kts | 59° |
| 2026-04-30 22:01 | 31.14315 | 130.47946 | 34915 ft | 582 kts | 59° |
| 2026-04-30 22:02 | 31.18567 | 130.56045 | 34917 ft | 582 kts | 59° |
| 2026-04-30 22:02 | 31.22826 | 130.64169 | 34920 ft | 582 kts | 59° |
| 2026-04-30 22:03 | 31.27086 | 130.72319 | 34902 ft | 581 kts | 60° |
| 2026-04-30 22:03 | 31.31330 | 130.80456 | 34905 ft | 582 kts | 60° |
| 2026-04-30 22:04 | 31.35575 | 130.88609 | 34912 ft | 582 kts | 60° |
| 2026-04-30 22:05 | 31.41903 | 131.00795 | 34904 ft | 581 kts | 60° |
| 2026-04-30 22:05 | 31.46151 | 131.08998 | 34897 ft | 581 kts | 60° |
| 2026-04-30 22:06 | 31.50364 | 131.17149 | 34895 ft | 581 kts | 60° |
| 2026-04-30 22:06 | 31.56679 | 131.29402 | 34890 ft | 581 kts | 61° |
| 2026-04-30 22:07 | 31.60911 | 131.37636 | 34885 ft | 581 kts | 61° |
| 2026-04-30 22:07 | 31.65128 | 131.45866 | 34877 ft | 582 kts | 61° |
| 2026-04-30 22:08 | 31.69327 | 131.54079 | 34869 ft | 582 kts | 61° |
| 2026-04-30 22:08 | 31.73515 | 131.62288 | 34861 ft | 582 kts | 61° |
| 2026-04-30 22:09 | 31.77702 | 131.70511 | 34832 ft | 582 kts | 62° |
| 2026-04-30 22:09 | 31.81908 | 131.78790 | 34839 ft | 583 kts | 62° |
| 2026-04-30 22:10 | 31.86092 | 131.87047 | 34840 ft | 583 kts | 62° |
| 2026-04-30 22:10 | 31.90284 | 131.95335 | 34845 ft | 583 kts | 62° |
| 2026-04-30 22:11 | 31.96566 | 132.07793 | 34849 ft | 584 kts | 63° |
| 2026-04-30 22:12 | 32.00755 | 132.16121 | 34849 ft | 584 kts | 63° |
| 2026-04-30 22:12 | 32.04932 | 132.24443 | 34844 ft | 584 kts | 63° |
| 2026-04-30 22:13 | 32.09110 | 132.32785 | 34839 ft | 584 kts | 63° |
| 2026-04-30 22:13 | 32.13256 | 132.41127 | 34810 ft | 582 kts | 65° |
| 2026-04-30 22:14 | 32.16836 | 132.49731 | 34821 ft | 581 kts | 68° |
| 2026-04-30 22:14 | 32.20487 | 132.58382 | 34819 ft | 580 kts | 68° |
| 2026-04-30 22:15 | 32.24120 | 132.66971 | 34810 ft | 578 kts | 68° |
| 2026-04-30 22:15 | 32.27726 | 132.75523 | 34800 ft | 575 kts | 68° |
| 2026-04-30 22:16 | 32.31305 | 132.84029 | 34798 ft | 574 kts | 68° |
| 2026-04-30 22:17 | 32.38469 | 133.01119 | 34758 ft | 571 kts | 68° |
| 2026-04-30 22:17 | 32.43788 | 133.13860 | 34766 ft | 569 kts | 68° |
| 2026-04-30 22:18 | 32.49071 | 133.26559 | 34770 ft | 567 kts | 68° |
| 2026-04-30 22:19 | 32.54332 | 133.39253 | 34766 ft | 565 kts | 68° |
| 2026-04-30 22:20 | 32.59546 | 133.51874 | 34762 ft | 563 kts | 68° |
| 2026-04-30 22:20 | 32.64748 | 133.64513 | 34759 ft | 562 kts | 68° |
| 2026-04-30 22:21 | 32.68203 | 133.72929 | 34741 ft | 560 kts | 68° |
| 2026-04-30 22:21 | 32.71635 | 133.81311 | 34739 ft | 561 kts | 68° |
| 2026-04-30 22:22 | 32.75081 | 133.89748 | 34733 ft | 561 kts | 68° |
| 2026-04-30 22:22 | 32.78520 | 133.98186 | 34723 ft | 561 kts | 68° |
| 2026-04-30 22:23 | 32.81918 | 134.06576 | 34718 ft | 559 kts | 70° |
| 2026-04-30 22:23 | 32.84275 | 134.15390 | 34734 ft | 553 kts | 79° |
| 2026-04-30 22:24 | 32.86456 | 134.24231 | 34720 ft | 551 kts | 79° |
| 2026-04-30 22:24 | 32.88649 | 134.33050 | 34712 ft | 547 kts | 79° |
| 2026-04-30 22:25 | 32.90821 | 134.41803 | 34710 ft | 547 kts | 79° |
| 2026-04-30 22:25 | 32.92977 | 134.50526 | 34710 ft | 547 kts | 78° |
| 2026-04-30 22:26 | 32.96225 | 134.63718 | 34711 ft | 547 kts | 78° |
| 2026-04-30 22:27 | 32.98371 | 134.72469 | 34693 ft | 545 kts | 79° |
| 2026-04-30 22:27 | 33.00760 | 134.85657 | 34703 ft | 535 kts | 90° |
| 2026-04-30 22:28 | 33.02180 | 134.98984 | 34685 ft | 534 kts | 89° |
| 2026-04-30 22:29 | 33.04086 | 135.16681 | 34679 ft | 533 kts | 89° |
| 2026-04-30 22:31 | 33.07352 | 135.47566 | 34681 ft | 531 kts | 89° |
| 2026-04-30 22:32 | 33.09634 | 135.69597 | 34673 ft | 529 kts | 89° |
| 2026-04-30 22:33 | 33.11765 | 135.90553 | 34664 ft | 529 kts | 89° |
| 2026-04-30 22:35 | 33.13962 | 136.12532 | 34674 ft | 528 kts | 89° |
| 2026-04-30 22:36 | 33.16111 | 136.34413 | 34679 ft | 526 kts | 89° |
| 2026-04-30 22:37 | 33.17802 | 136.51920 | 34684 ft | 526 kts | 89° |
| 2026-04-30 22:38 | 33.19473 | 136.69492 | 34678 ft | 526 kts | 89° |
| 2026-04-30 22:39 | 33.20702 | 136.82600 | 34685 ft | 526 kts | 89° |
| 2026-04-30 22:40 | 33.23148 | 137.08978 | 34722 ft | 527 kts | 86° |
| 2026-04-30 22:41 | 33.28411 | 137.30495 | 34768 ft | 535 kts | 77° |
| 2026-04-30 22:43 | 33.34835 | 137.56380 | 34773 ft | 536 kts | 76° |
| 2026-04-30 22:44 | 33.39118 | 137.73779 | 34765 ft | 536 kts | 77° |
| 2026-04-30 22:45 | 33.47289 | 137.98993 | 34788 ft | 544 kts | 58° |
| 2026-04-30 22:47 | 33.59396 | 138.22469 | 34776 ft | 544 kts | 59° |
| 2026-04-30 22:48 | 33.67378 | 138.38104 | 34803 ft | 544 kts | 59° |
| 2026-04-30 22:49 | 33.79394 | 138.61769 | 34829 ft | 544 kts | 59° |
| 2026-04-30 22:51 | 33.91305 | 138.85382 | 34821 ft | 541 kts | 59° |
| 2026-04-30 22:52 | 33.97211 | 138.97145 | 34828 ft | 541 kts | 59° |
| 2026-04-30 22:53 | 34.05050 | 139.12819 | 34838 ft | 542 kts | 59° |
| 2026-04-30 22:53 | 34.10982 | 139.24727 | 34837 ft | 544 kts | 59° |
| 2026-04-30 22:55 | 34.19655 | 139.42204 | 34842 ft | 543 kts | 59° |
| 2026-04-30 22:56 | 34.27479 | 139.58043 | 34866 ft | 540 kts | 59° |
| 2026-04-30 22:57 | 34.37209 | 139.77841 | 34891 ft | 539 kts | 60° |
| 2026-04-30 22:58 | 34.44944 | 139.93658 | 34875 ft | 538 kts | 60° |
| 2026-04-30 22:59 | 34.56517 | 140.17459 | 34872 ft | 539 kts | 60° |